This London Heathrow Airport weather forecast is generated by the Met Office Weather Widget

AirNav RadarBox - Metar Weather
  London Heathrow Metar Weather
 

METAR = EGLL 240420Z AUTO 25004KT 9999 NCD 15/13 Q1019 NOSIG

STATION........ EGLL
OBSERVED....... Sun Jul 24, 05:20 BST
NOW............ Sun Jul 24, 05:49 BST
AGE............ 29 min ago
WIND........... WSW at 5 mph
VISIBILITY..... 16 miles

Sun Jul 24 2016, sunrise time : 04:20
Sun Jul 24 2016, sunset time : 19:56